createdAt,value
2018-11-14T00:00:18.418Z,7.37
2018-11-14T00:02:47.121Z,10.37
2018-11-14T00:05:16.057Z,10.20
2018-11-14T00:07:44.942Z,10.10
2018-11-14T00:10:13.828Z,9.87
2018-11-14T00:12:42.515Z,9.60
2018-11-14T00:15:13.921Z,8.50
2018-11-14T00:17:43.773Z,9.47
2018-11-14T00:20:12.847Z,8.00
2018-11-14T00:22:42.764Z,9.27
2018-11-14T00:25:12.610Z,9.90
2018-11-14T00:27:41.414Z,9.53
2018-11-14T00:30:13.693Z,10.07
2018-11-14T00:32:42.746Z,9.40
2018-11-14T00:35:12.047Z,10.40
2018-11-14T00:37:41.233Z,10.20
2018-11-14T00:40:11.521Z,9.40
2018-11-14T00:42:40.723Z,9.20
2018-11-14T00:45:11.203Z,9.30
2018-11-14T00:47:41.417Z,9.40
2018-11-14T00:50:11.140Z,10.00
2018-11-14T00:52:40.153Z,10.03
2018-11-14T00:55:11.223Z,9.70
2018-11-14T00:57:39.994Z,10.00
2018-11-14T01:00:12.102Z,10.10
2018-11-14T01:02:41.305Z,10.10
2018-11-14T01:05:11.120Z,10.70
2018-11-14T01:07:40.098Z,11.30
2018-11-14T01:10:10.771Z,10.47
2018-11-14T01:12:39.899Z,10.27
2018-11-14T01:15:10.494Z,9.83
2018-11-14T01:17:39.425Z,10.10
2018-11-14T01:20:11.108Z,9.50
2018-11-14T01:22:40.196Z,9.93
2018-11-14T01:25:10.063Z,9.50
2018-11-14T01:27:38.847Z,10.83
2018-11-14T01:30:10.966Z,9.30
2018-11-14T01:32:40.173Z,10.03
2018-11-14T01:35:09.042Z,9.50
2018-11-14T01:37:37.726Z,9.90
2018-11-14T01:40:14.625Z,8.90
2018-11-14T01:42:43.887Z,8.77
2018-11-14T01:45:12.732Z,9.90
2018-11-14T01:47:41.496Z,8.80
2018-11-14T01:50:10.755Z,8.37
2018-11-14T01:52:39.706Z,9.50
2018-11-14T01:55:10.067Z,9.10
2018-11-14T01:57:38.817Z,9.63
2018-11-14T02:00:11.430Z,9.20
2018-11-14T02:02:40.680Z,9.37
2018-11-14T02:05:10.219Z,9.07
2018-11-14T02:07:39.075Z,9.63
2018-11-14T02:10:12.414Z,9.13
2018-11-14T02:12:41.605Z,8.77
2018-11-14T02:15:13.377Z,9.00
2018-11-14T02:17:42.178Z,9.33
2018-11-14T02:20:11.524Z,9.60
2018-11-14T02:22:40.754Z,9.80
2018-11-14T02:25:10.429Z,10.20
2018-11-14T02:27:39.177Z,9.30
2018-11-14T02:30:13.758Z,9.13
2018-11-14T02:32:42.514Z,9.00
2018-11-14T02:35:11.516Z,9.40
2018-11-14T02:37:41.422Z,9.70
2018-11-14T02:40:12.525Z,9.63
2018-11-14T02:42:41.526Z,10.20
2018-11-14T02:45:10.807Z,9.60
2018-11-14T02:47:39.572Z,10.70
2018-11-14T02:50:09.810Z,10.77
2018-11-14T02:52:38.563Z,10.60
2018-11-14T02:55:08.428Z,9.87
2018-11-14T02:57:37.130Z,10.30
2018-11-14T03:00:07.973Z,9.90
2018-11-14T03:02:36.782Z,10.50
2018-11-14T03:05:06.102Z,9.63
2018-11-14T03:07:35.061Z,9.67
2018-11-14T03:10:03.952Z,10.23
2018-11-14T03:12:32.837Z,9.67
2018-11-14T03:15:01.502Z,9.63
2018-11-14T03:17:30.227Z,10.40
2018-11-14T03:19:58.992Z,11.27
2018-11-14T03:22:27.730Z,10.10
2018-11-14T03:24:56.517Z,9.70
2018-11-14T03:27:25.301Z,10.40
2018-11-14T03:29:54.085Z,9.80
2018-11-14T03:32:22.889Z,10.27
2018-11-14T03:34:51.593Z,10.30
2018-11-14T03:37:20.746Z,10.30
2018-11-14T03:39:49.414Z,10.23
2018-11-14T03:42:18.143Z,9.03
2018-11-14T03:44:46.862Z,10.17
2018-11-14T03:47:15.590Z,9.63
2018-11-14T03:49:44.299Z,9.93
2018-11-14T03:52:12.990Z,9.77
2018-11-14T03:54:41.737Z,9.60
2018-11-14T03:57:10.566Z,11.23
2018-11-14T03:59:39.315Z,10.83
2018-11-14T04:02:08.210Z,9.73
2018-11-14T04:04:37.061Z,10.30
2018-11-14T04:07:06.362Z,10.67
2018-11-14T04:09:35.079Z,10.13
2018-11-14T04:12:03.897Z,10.93
2018-11-14T04:14:32.663Z,11.30
2018-11-14T04:17:01.408Z,9.33
2018-11-14T04:19:30.175Z,10.20
2018-11-14T04:21:58.987Z,9.63
2018-11-14T04:24:27.779Z,10.03
2018-11-14T04:26:56.554Z,10.37
2018-11-14T04:29:25.318Z,9.33
2018-11-14T04:31:54.109Z,9.47
2018-11-14T04:34:22.880Z,9.57
2018-11-14T04:36:51.661Z,9.27
2018-11-14T04:39:20.450Z,10.17
2018-11-14T04:41:49.113Z,9.43
2018-11-14T04:44:17.901Z,10.37
2018-11-14T04:46:46.639Z,10.13
2018-11-14T04:49:15.444Z,10.60
2018-11-14T04:51:44.177Z,9.73
2018-11-14T04:54:12.941Z,11.20
2018-11-14T04:56:42.706Z,11.20
2018-11-14T04:59:11.456Z,10.00
2018-11-14T05:01:40.211Z,11.73
2018-11-14T05:04:10.099Z,12.47
2018-11-14T05:06:38.847Z,10.20
2018-11-14T05:09:10.407Z,10.23
2018-11-14T05:11:39.157Z,11.90
2018-11-14T05:14:08.527Z,11.80
2018-11-14T05:16:37.310Z,11.13
2018-11-14T05:19:06.135Z,11.60
2018-11-14T05:21:35.369Z,11.37
2018-11-14T05:24:04.240Z,10.60
2018-11-14T05:26:33.085Z,11.80
2018-11-14T05:29:01.942Z,10.90
2018-11-14T05:31:30.874Z,11.13
2018-11-14T05:33:59.594Z,10.90
2018-11-14T05:36:28.374Z,12.07
2018-11-14T05:38:57.085Z,12.00
2018-11-14T05:41:25.870Z,10.07
2018-11-14T05:43:54.669Z,11.50
2018-11-14T05:46:23.456Z,11.33
2018-11-14T05:48:52.222Z,12.03
2018-11-14T05:51:21.015Z,12.60
2018-11-14T05:53:49.776Z,11.93
2018-11-14T05:56:18.561Z,11.40
2018-11-14T05:58:47.357Z,11.73
2018-11-14T06:01:16.316Z,12.70
2018-11-14T06:03:45.135Z,13.13
2018-11-14T06:06:13.967Z,11.60
2018-11-14T06:08:44.087Z,12.33
2018-11-14T06:11:13.900Z,12.90
2018-11-14T06:13:42.658Z,11.80
2018-11-14T06:16:11.411Z,12.50
2018-11-14T06:18:40.246Z,13.07
2018-11-14T06:21:10.156Z,12.73
2018-11-14T06:23:39.084Z,13.33
2018-11-14T06:26:07.897Z,11.77
2018-11-14T06:28:37.730Z,12.40
2018-11-14T06:31:06.636Z,11.73
2018-11-14T06:33:35.473Z,12.77
2018-11-14T06:36:04.425Z,12.37
2018-11-14T06:38:33.323Z,12.63
2018-11-14T06:41:02.207Z,12.70
2018-11-14T06:43:31.348Z,14.23
2018-11-14T06:46:00.264Z,15.00
2018-11-14T06:48:29.220Z,14.90
2018-11-14T06:50:58.140Z,17.90
2018-11-14T06:53:27.005Z,18.10
2018-11-14T06:55:55.910Z,22.50
2018-11-14T06:58:24.807Z,24.50
2018-11-14T07:00:53.818Z,33.23
2018-11-14T07:03:22.731Z,28.40
2018-11-14T07:05:51.675Z,31.13
2018-11-14T07:08:21.441Z,28.27
2018-11-14T07:10:50.322Z,35.30
2018-11-14T07:13:19.205Z,35.77
2018-11-14T07:15:48.285Z,36.90
2018-11-14T07:18:17.077Z,40.10
2018-11-14T07:20:46.066Z,33.13
2018-11-14T07:23:14.921Z,43.83
2018-11-14T07:25:43.741Z,42.40
2018-11-14T07:28:12.627Z,37.83
2018-11-14T07:30:41.471Z,45.20
2018-11-14T07:33:11.169Z,39.07
2018-11-14T07:35:41.035Z,32.90
2018-11-14T07:38:46.087Z,37.00
2018-11-14T07:41:20.406Z,39.50
2018-11-14T07:43:49.253Z,35.87
2018-11-14T07:46:18.214Z,32.70
2018-11-14T07:48:48.154Z,34.27
2018-11-14T07:51:17.081Z,29.73
2018-11-14T07:53:45.936Z,32.53
2018-11-14T07:56:14.837Z,32.50
2018-11-14T07:58:44.649Z,33.60
2018-11-14T08:01:13.602Z,30.00
2018-11-14T08:03:42.381Z,27.47
2018-11-14T08:06:12.172Z,28.63
2018-11-14T08:08:41.126Z,28.17
2018-11-14T08:11:10.069Z,28.23
2018-11-14T08:13:40.304Z,28.80
2018-11-14T08:16:09.083Z,29.03
2018-11-14T08:18:38.040Z,28.60
2018-11-14T08:21:07.263Z,26.37
2018-11-14T08:23:36.077Z,25.40
2018-11-14T08:26:05.005Z,25.17
2018-11-14T08:28:33.914Z,25.07
2018-11-14T08:31:03.008Z,22.43
2018-11-14T08:33:31.860Z,25.30
2018-11-14T08:36:00.640Z,23.77
2018-11-14T08:38:29.520Z,25.07
2018-11-14T08:40:58.365Z,24.00
2018-11-14T08:43:27.149Z,22.23
2018-11-14T08:45:55.920Z,21.40
2018-11-14T08:48:24.839Z,21.90
2018-11-14T08:50:53.647Z,24.00
2018-11-14T08:53:22.609Z,22.87
2018-11-14T08:55:51.451Z,21.80
2018-11-14T08:58:21.273Z,20.50
2018-11-14T09:00:50.053Z,20.60
2018-11-14T09:03:18.946Z,20.27
2018-11-14T09:05:47.946Z,19.80
2018-11-14T09:08:16.717Z,19.40
2018-11-14T09:10:45.551Z,19.00
2018-11-14T09:13:15.686Z,16.60
2018-11-14T09:15:45.546Z,17.90
2018-11-14T09:18:14.675Z,14.77
2018-11-14T09:20:43.523Z,14.70
2018-11-14T09:23:12.654Z,16.40
2018-11-14T09:25:41.623Z,16.53
2018-11-14T09:28:10.472Z,15.87
2018-11-14T09:30:39.316Z,16.70
2018-11-14T09:33:08.226Z,15.67
2018-11-14T09:35:37.281Z,17.33
2018-11-14T09:38:06.149Z,18.47
2018-11-14T09:40:35.032Z,15.80
2018-11-14T09:43:03.883Z,17.57
2018-11-14T09:45:32.813Z,16.50
2018-11-14T09:48:01.590Z,17.07
2018-11-14T09:50:31.599Z,17.33
2018-11-14T09:53:02.798Z,17.53
2018-11-14T09:55:31.648Z,18.00
2018-11-14T09:58:00.486Z,17.77
2018-11-14T10:00:33.644Z,18.27
2018-11-14T10:03:07.646Z,20.03
2018-11-14T10:05:36.615Z,16.33
2018-11-14T10:08:05.851Z,17.23
2018-11-14T10:10:34.847Z,17.07
2018-11-14T10:13:03.854Z,17.30
2018-11-14T10:15:32.852Z,16.87
2018-11-14T10:18:01.664Z,20.00
2018-11-14T10:20:30.623Z,17.80
2018-11-14T10:22:59.476Z,20.50
2018-11-14T10:25:28.324Z,18.50
2018-11-14T10:27:57.182Z,20.40
2018-11-14T10:30:27.245Z,21.07
2018-11-14T10:32:56.168Z,20.00
2018-11-14T10:35:25.064Z,20.93
2018-11-14T10:37:53.996Z,21.43
2018-11-14T10:40:25.040Z,19.17
2018-11-14T10:42:53.983Z,20.43
2018-11-14T10:45:23.917Z,18.90
2018-11-14T10:47:52.720Z,18.70
2018-11-14T10:50:22.738Z,20.43
2018-11-14T10:52:51.544Z,19.50
2018-11-14T10:55:20.935Z,20.73
2018-11-14T10:57:49.960Z,21.73
2018-11-14T11:00:29.092Z,21.70
2018-11-14T11:03:05.112Z,20.90
2018-11-14T11:05:39.018Z,21.60
2018-11-14T11:08:13.402Z,22.70
2018-11-14T11:10:47.262Z,22.70
2018-11-14T11:13:21.248Z,21.73
2018-11-14T11:15:55.268Z,22.93
2018-11-14T11:21:17.999Z,23.73
2018-11-14T11:23:46.940Z,23.80
2018-11-14T11:26:15.981Z,22.53
2018-11-14T11:28:44.946Z,23.83
2018-11-14T11:31:13.966Z,23.70
2018-11-14T11:33:42.832Z,25.50
2018-11-14T11:36:12.684Z,21.73
2018-11-14T11:38:42.527Z,24.30
2018-11-14T11:41:11.327Z,25.00
2018-11-14T11:43:40.501Z,24.13
2018-11-14T11:46:09.469Z,22.73
2018-11-14T11:48:38.337Z,20.70
2018-11-14T11:51:07.631Z,24.10
2018-11-14T11:53:36.592Z,23.30
2018-11-14T11:56:06.055Z,21.07
2018-11-14T11:58:35.250Z,20.47
2018-11-14T12:01:03.987Z,20.97
2018-11-14T12:03:32.843Z,22.13
2018-11-14T12:06:02.057Z,21.30
2018-11-14T12:08:31.011Z,22.77
2018-11-14T12:10:59.848Z,23.47
2018-11-14T12:13:28.654Z,24.93
2018-11-14T12:16:00.124Z,24.30
2018-11-14T12:18:29.558Z,24.00
2018-11-14T12:20:58.782Z,23.53
2018-11-14T12:23:27.777Z,23.07
2018-11-14T12:25:56.795Z,21.63
2018-11-14T12:28:26.069Z,23.70
2018-11-14T12:30:54.975Z,23.70
2018-11-14T12:33:24.204Z,25.37
2018-11-14T12:35:53.154Z,23.73
2018-11-14T12:38:23.241Z,23.23
2018-11-14T12:40:52.083Z,23.77
2018-11-14T12:43:21.964Z,23.70
2018-11-14T12:45:50.732Z,23.07
2018-11-14T12:48:19.524Z,22.10
2018-11-14T12:50:48.393Z,21.47
2018-11-14T12:53:17.185Z,21.47
2018-11-14T12:55:46.063Z,22.50
2018-11-14T12:58:15.173Z,21.50
2018-11-14T13:00:44.146Z,20.70
2018-11-14T13:03:13.063Z,22.37
2018-11-14T13:05:42.061Z,20.30
2018-11-14T13:08:10.839Z,22.10
2018-11-14T13:10:39.521Z,21.63
2018-11-14T13:13:08.238Z,22.17
2018-11-14T13:15:36.916Z,20.17
2018-11-14T13:18:09.689Z,20.83
2018-11-14T13:20:38.475Z,21.00
2018-11-14T13:23:07.236Z,21.17
2018-11-14T13:25:36.027Z,21.83
2018-11-14T13:28:04.971Z,22.00
2018-11-14T13:30:33.649Z,21.73
2018-11-14T13:33:02.437Z,21.90
2018-11-14T13:35:31.226Z,22.67
2018-11-14T13:37:59.969Z,23.23
2018-11-14T13:40:28.771Z,21.80
2018-11-14T13:42:57.607Z,22.50
2018-11-14T13:45:26.280Z,21.97
2018-11-14T13:47:55.093Z,23.97
2018-11-14T13:50:23.995Z,23.47
2018-11-14T13:52:52.640Z,22.50
2018-11-14T13:55:21.844Z,24.30
2018-11-14T13:57:51.651Z,22.07
2018-11-14T14:00:21.603Z,24.23
2018-11-14T14:02:51.317Z,21.30
2018-11-14T14:05:21.245Z,23.73
2018-11-14T14:07:49.935Z,22.90
2018-11-14T14:10:18.988Z,23.07
2018-11-14T14:12:49.901Z,22.13
2018-11-14T14:15:19.914Z,22.53
2018-11-14T14:17:49.240Z,25.37
2018-11-14T14:20:18.589Z,23.40
2018-11-14T14:22:47.537Z,22.97
2018-11-14T14:25:17.424Z,23.27
2018-11-14T14:27:46.242Z,21.30
2018-11-14T14:30:17.068Z,23.47
2018-11-14T14:32:46.378Z,23.10
2018-11-14T14:35:16.186Z,23.40
2018-11-14T14:37:45.171Z,23.07
2018-11-14T14:40:17.303Z,24.20
2018-11-14T14:42:46.324Z,22.20
2018-11-14T14:45:16.552Z,22.83
2018-11-14T14:47:45.296Z,22.77
2018-11-14T14:50:15.257Z,23.67
2018-11-14T14:52:44.581Z,22.77
2018-11-14T14:55:15.713Z,23.80
2018-11-14T14:57:45.092Z,22.90
2018-11-14T15:00:17.676Z,22.60
2018-11-14T15:02:46.491Z,22.00
2018-11-14T15:05:15.402Z,23.57
2018-11-14T15:07:44.172Z,26.30
2018-11-14T15:10:14.821Z,24.57
2018-11-14T15:12:43.558Z,24.73
2018-11-14T15:15:13.036Z,25.00
2018-11-14T15:17:41.994Z,25.90
2018-11-14T15:20:13.170Z,25.47
2018-11-14T15:22:42.199Z,23.90
2018-11-14T15:25:12.698Z,24.67
2018-11-14T15:27:42.026Z,25.10
2018-11-14T15:30:14.538Z,26.07
2018-11-14T15:32:43.222Z,25.53
2018-11-14T15:35:12.765Z,25.60
2018-11-14T15:37:41.650Z,26.40
2018-11-14T15:40:12.615Z,24.70
2018-11-14T15:42:41.662Z,23.73
2018-11-14T15:45:13.256Z,27.30
2018-11-14T15:47:42.338Z,26.70
2018-11-14T15:50:18.004Z,28.10
2018-11-14T15:52:47.970Z,27.70
2018-11-14T15:55:17.901Z,27.50
2018-11-14T15:57:46.938Z,26.00
2018-11-14T16:00:19.814Z,26.10
2018-11-14T16:02:48.805Z,25.33
2018-11-14T16:05:19.037Z,26.87
2018-11-14T16:07:49.292Z,25.43
2018-11-14T16:10:19.458Z,27.07
2018-11-14T16:12:48.425Z,28.20
2018-11-14T16:15:18.809Z,25.53
2018-11-14T16:17:47.804Z,27.77
2018-11-14T16:20:24.248Z,28.07
2018-11-14T16:22:53.433Z,28.93
2018-11-14T16:25:24.262Z,28.70
2018-11-14T16:27:54.637Z,29.87
2018-11-14T16:30:40.001Z,29.23
2018-11-14T16:33:09.230Z,29.50
2018-11-14T16:35:38.273Z,31.40
2018-11-14T16:38:07.329Z,31.17
2018-11-14T16:40:36.294Z,29.13
2018-11-14T16:43:07.711Z,29.00
2018-11-14T16:45:36.646Z,26.20
2018-11-14T16:48:05.463Z,26.63
2018-11-14T16:50:34.292Z,26.10
2018-11-14T16:53:03.175Z,25.20
2018-11-14T16:55:32.211Z,27.40
2018-11-14T16:58:01.257Z,25.40
2018-11-14T17:00:32.264Z,26.30
2018-11-14T17:03:01.251Z,23.60
2018-11-14T17:05:32.037Z,25.70
2018-11-14T17:08:01.236Z,25.77
2018-11-14T17:10:31.469Z,24.83
2018-11-14T17:13:01.275Z,26.50
2018-11-14T17:15:30.216Z,26.10
2018-11-14T17:17:58.988Z,26.80
2018-11-14T17:20:27.864Z,28.23
2018-11-14T17:22:56.866Z,25.30
2018-11-14T17:25:25.831Z,27.97
2018-11-14T17:27:54.768Z,26.63
2018-11-14T17:30:25.803Z,27.83
2018-11-14T17:32:54.965Z,27.13
2018-11-14T17:35:24.041Z,27.43
2018-11-14T17:37:52.980Z,26.10
2018-11-14T17:40:24.579Z,27.10
2018-11-14T17:42:54.012Z,27.27
2018-11-14T17:45:25.077Z,26.53
2018-11-14T17:47:54.337Z,29.43
2018-11-14T17:50:25.780Z,28.20
2018-11-14T17:52:55.363Z,32.90
2018-11-14T17:55:24.744Z,32.70
2018-11-14T17:57:53.988Z,32.67
2018-11-14T18:00:25.033Z,30.70
2018-11-14T18:02:54.062Z,32.77
2018-11-14T18:05:25.691Z,30.97
2018-11-14T18:07:55.147Z,30.30
2018-11-14T18:10:26.697Z,32.20
2018-11-14T18:12:57.048Z,34.13
2018-11-14T18:15:26.055Z,31.37
2018-11-14T18:17:55.647Z,34.13
2018-11-14T18:20:26.082Z,34.97
2018-11-14T18:22:55.269Z,34.43
2018-11-14T18:25:24.405Z,34.50
2018-11-14T18:27:53.433Z,33.97
2018-11-14T18:30:25.440Z,32.63
2018-11-14T18:32:55.172Z,36.03
2018-11-14T18:35:24.765Z,28.77
2018-11-14T18:37:55.662Z,29.00
2018-11-14T18:40:29.184Z,29.13
2018-11-14T18:42:58.295Z,30.67
2018-11-14T18:45:32.662Z,30.20
2018-11-14T18:48:02.548Z,30.33
2018-11-14T18:50:32.668Z,30.53
2018-11-14T18:53:01.758Z,30.23
2018-11-14T18:55:32.246Z,30.40
2018-11-14T18:58:02.242Z,32.80
2018-11-14T19:00:32.988Z,34.27
2018-11-14T19:03:02.395Z,32.27
2018-11-14T19:05:31.975Z,38.23
2018-11-14T19:08:01.350Z,31.87
2018-11-14T19:10:32.279Z,29.90
2018-11-14T19:13:01.375Z,32.43
2018-11-14T19:15:31.693Z,31.30
2018-11-14T19:18:00.701Z,31.90
2018-11-14T19:20:31.019Z,32.50
2018-11-14T19:23:00.458Z,31.60
2018-11-14T19:25:30.775Z,34.13
2018-11-14T19:27:59.958Z,33.80
2018-11-14T19:30:30.520Z,32.40
2018-11-14T19:33:00.280Z,33.10
2018-11-14T19:35:29.321Z,33.57
2018-11-14T19:37:58.766Z,37.87
2018-11-14T19:40:29.310Z,35.77
2018-11-14T19:42:59.851Z,36.07
2018-11-14T19:45:32.717Z,36.17
2018-11-14T19:48:01.995Z,36.53
2018-11-14T19:50:31.375Z,34.70
2018-11-14T19:53:00.507Z,35.80
2018-11-14T19:55:30.010Z,34.93
2018-11-14T19:58:01.463Z,35.40
2018-11-14T20:00:32.852Z,35.03
2018-11-14T20:03:01.993Z,35.33
2018-11-14T20:05:31.428Z,36.23
2018-11-14T20:08:00.742Z,38.60
2018-11-14T20:10:31.366Z,36.30
2018-11-14T20:13:01.517Z,38.27
2018-11-14T20:15:32.324Z,36.90
2018-11-14T20:18:01.819Z,34.27
2018-11-14T20:20:32.302Z,33.50
2018-11-14T20:23:01.397Z,32.60
2018-11-14T20:25:30.844Z,33.60
2018-11-14T20:27:59.958Z,34.43
2018-11-14T20:30:30.282Z,36.23
2018-11-14T20:33:00.706Z,35.10
2018-11-14T20:35:30.324Z,35.50
2018-11-14T20:37:59.603Z,34.67
2018-11-14T20:40:33.507Z,36.00
2018-11-14T20:43:02.685Z,38.00
2018-11-14T20:45:33.154Z,35.33
2018-11-14T20:48:02.451Z,36.53
2018-11-14T20:50:31.562Z,30.13
2018-11-14T20:53:02.380Z,32.00
2018-11-14T20:55:32.073Z,32.57
2018-11-14T20:58:02.826Z,27.70
2018-11-14T21:00:34.189Z,30.40
2018-11-14T21:03:03.343Z,27.70
2018-11-14T21:05:32.804Z,29.33
2018-11-14T21:08:02.075Z,28.70
2018-11-14T21:10:32.357Z,29.77
2018-11-14T21:13:02.105Z,30.63
2018-11-14T21:15:32.918Z,27.83
2018-11-14T21:18:02.450Z,26.60
2018-11-14T21:20:34.383Z,29.67
2018-11-14T21:23:03.573Z,28.37
2018-11-14T21:25:32.528Z,30.37
2018-11-14T21:28:01.369Z,27.10
2018-11-14T21:30:31.348Z,28.33
2018-11-14T21:33:00.332Z,29.00
2018-11-14T21:35:33.269Z,28.33
2018-11-14T21:38:04.823Z,28.43
2018-11-14T21:40:33.808Z,26.33
2018-11-14T21:43:03.210Z,28.00
2018-11-14T21:45:32.652Z,28.07
2018-11-14T21:48:06.830Z,27.20
2018-11-14T21:50:35.915Z,26.03
2018-11-14T21:53:05.139Z,27.50
2018-11-14T21:55:34.516Z,25.60
2018-11-14T21:58:03.650Z,26.67
2018-11-14T22:00:33.858Z,26.27
2018-11-14T22:03:03.856Z,27.50
2018-11-14T22:05:33.169Z,27.00
2018-11-14T22:08:02.345Z,27.07
2018-11-14T22:10:31.364Z,28.07
2018-11-14T22:13:00.354Z,26.03
2018-11-14T22:15:30.092Z,26.10
2018-11-14T22:17:59.104Z,24.77
2018-11-14T22:20:28.457Z,25.07
2018-11-14T22:22:57.467Z,25.07
2018-11-14T22:25:27.562Z,25.43
2018-11-14T22:27:56.658Z,25.73
2018-11-14T22:30:27.250Z,27.10
2018-11-14T22:32:57.297Z,23.97
2018-11-14T22:35:27.385Z,24.03
2018-11-14T22:37:56.271Z,25.27
2018-11-14T22:40:27.456Z,24.17
2018-11-14T22:42:56.514Z,25.50
2018-11-14T22:45:30.956Z,26.30
2018-11-14T22:47:59.904Z,26.87
2018-11-14T22:50:29.175Z,26.10
2018-11-14T22:52:58.132Z,26.10
2018-11-14T22:55:27.380Z,27.73
2018-11-14T22:57:56.385Z,26.93
2018-11-14T23:00:28.123Z,26.90
2018-11-14T23:02:59.279Z,26.47
2018-11-14T23:05:28.333Z,29.37
2018-11-14T23:07:57.976Z,27.60
2018-11-14T23:10:27.323Z,28.80
2018-11-14T23:12:56.380Z,27.40
2018-11-14T23:15:25.728Z,29.17
2018-11-14T23:17:54.667Z,29.03
2018-11-14T23:20:23.645Z,27.80
2018-11-14T23:22:53.192Z,28.30
2018-11-14T23:25:22.660Z,29.53
2018-11-14T23:27:52.670Z,28.40
2018-11-14T23:30:22.780Z,28.10
2018-11-14T23:32:52.589Z,28.20
2018-11-14T23:35:24.419Z,29.30
2018-11-14T23:37:56.533Z,28.27
2018-11-14T23:40:25.467Z,28.57
2018-11-14T23:42:54.495Z,28.50
2018-11-14T23:45:24.237Z,27.27
2018-11-14T23:47:53.173Z,32.23
2018-11-14T23:50:24.165Z,28.40
2018-11-14T23:52:54.005Z,29.60
2018-11-14T23:55:23.726Z,26.70
2018-11-14T23:57:52.725Z,27.53
